createdAt,value
2022-09-12T00:01:19.396Z,12.50
2022-09-12T00:02:21.937Z,11.23
2022-09-12T00:03:24.743Z,12.23
2022-09-12T00:04:28.179Z,10.57
2022-09-12T00:05:31.090Z,9.80
2022-09-12T00:06:36.464Z,11.68
2022-09-12T00:07:38.642Z,10.05
2022-09-12T00:08:40.870Z,11.57
2022-09-12T00:09:43.293Z,10.82
2022-09-12T00:10:45.585Z,10.15
2022-09-12T00:11:47.907Z,12.60
2022-09-12T00:12:50.066Z,10.43
2022-09-12T00:13:56.289Z,10.38
2022-09-12T00:14:59.010Z,9.05
2022-09-12T00:16:01.214Z,10.85
2022-09-12T00:17:03.479Z,11.32
2022-09-12T00:18:06.279Z,9.50
2022-09-12T00:19:09.396Z,11.30
2022-09-12T00:20:11.783Z,10.93
2022-09-12T00:21:15.241Z,10.95
2022-09-12T00:22:17.353Z,10.07
2022-09-12T00:23:19.482Z,11.60
2022-09-12T00:24:22.059Z,9.93
2022-09-12T00:25:24.203Z,10.60
2022-09-12T00:26:26.731Z,10.30
2022-09-12T00:27:28.909Z,10.60
2022-09-12T00:28:31.025Z,10.73
2022-09-12T00:29:33.241Z,9.80
2022-09-12T00:30:35.358Z,9.25
2022-09-12T00:31:37.733Z,9.18
2022-09-12T00:32:39.933Z,10.32
2022-09-12T00:33:42.492Z,9.27
2022-09-12T00:34:44.600Z,10.07
2022-09-12T00:35:53.050Z,9.85
2022-09-12T00:36:55.184Z,8.15
2022-09-12T00:37:57.294Z,9.65
2022-09-12T00:38:59.472Z,10.02
2022-09-12T00:40:02.134Z,10.80
2022-09-12T00:41:08.882Z,11.43
2022-09-12T00:42:12.640Z,11.25
2022-09-12T00:43:42.163Z,10.20
2022-09-12T00:44:48.519Z,9.77
2022-09-12T00:45:50.739Z,10.48
2022-09-12T00:47:16.446Z,9.48
2022-09-12T00:48:28.176Z,9.45
2022-09-12T00:49:46.298Z,11.30
2022-09-12T00:50:49.893Z,9.05
2022-09-12T00:52:12.011Z,10.48
2022-09-12T00:53:14.263Z,9.00
2022-09-12T00:54:22.450Z,11.25
2022-09-12T00:55:28.637Z,10.57
2022-09-12T00:56:31.334Z,11.02
2022-09-12T00:57:37.565Z,11.63
2022-09-12T00:58:45.981Z,14.13
2022-09-12T00:59:53.249Z,8.82
2022-09-12T01:00:56.899Z,10.65
2022-09-12T01:01:59.268Z,10.13
2022-09-12T01:03:06.021Z,12.98
2022-09-12T01:04:10.009Z,11.98
2022-09-12T01:05:13.591Z,10.48
2022-09-12T01:06:21.990Z,11.50
2022-09-12T01:07:24.457Z,11.52
2022-09-12T01:08:28.583Z,9.20
2022-09-12T01:09:31.254Z,10.57
2022-09-12T01:10:37.346Z,9.02
2022-09-12T01:11:40.995Z,9.68
2022-09-12T01:12:44.211Z,9.88
2022-09-12T01:13:46.494Z,8.70
2022-09-12T01:14:48.762Z,10.60
2022-09-12T01:15:50.929Z,8.20
2022-09-12T01:16:53.160Z,8.82
2022-09-12T01:18:13.902Z,8.27
2022-09-12T01:19:35.177Z,9.48
2022-09-12T01:20:50.410Z,10.02
2022-09-12T01:22:14.190Z,9.50
2022-09-12T01:23:37.839Z,9.40
2022-09-12T01:25:01.545Z,9.68
2022-09-12T01:26:09.662Z,9.40
2022-09-12T01:27:32.914Z,10.02
2022-09-12T01:28:35.049Z,10.05
2022-09-12T01:29:59.008Z,9.02
2022-09-12T01:31:08.927Z,10.95
2022-09-12T01:32:28.631Z,9.80
2022-09-12T01:33:39.861Z,8.55
2022-09-12T01:35:03.752Z,7.90
2022-09-12T01:36:27.578Z,9.07
2022-09-12T01:37:38.749Z,6.68
2022-09-12T01:39:01.446Z,10.77
2022-09-12T01:40:15.241Z,9.02
2022-09-12T01:41:20.239Z,9.68
2022-09-12T01:42:50.109Z,7.75
2022-09-12T01:43:55.198Z,12.10
2022-09-12T01:45:11.913Z,9.35
2022-09-12T01:46:21.333Z,10.38
2022-09-12T01:47:40.732Z,9.07
2022-09-12T01:48:55.719Z,8.70
2022-09-12T01:50:21.599Z,7.93
2022-09-12T01:51:31.239Z,9.43
2022-09-12T01:52:41.347Z,11.00
2022-09-12T01:53:50.589Z,11.43
2022-09-12T01:55:10.210Z,8.48
2022-09-12T01:56:15.576Z,9.00
2022-09-12T01:57:38.257Z,9.27
2022-09-12T01:58:50.024Z,9.13
2022-09-12T01:59:57.390Z,7.97
2022-09-12T02:01:15.710Z,9.23
2022-09-12T02:03:02.550Z,8.32
2022-09-12T02:04:12.502Z,9.07
2022-09-12T02:05:25.235Z,8.57
2022-09-12T02:06:40.248Z,8.13
2022-09-12T02:07:51.619Z,7.35
2022-09-12T02:08:59.892Z,11.10
2022-09-12T02:10:23.533Z,9.05
2022-09-12T02:11:25.963Z,9.07
2022-09-12T02:12:42.010Z,8.13
2022-09-12T02:13:51.067Z,10.82
2022-09-12T02:15:02.480Z,9.88
2022-09-12T02:16:12.837Z,11.10
2022-09-12T02:17:19.154Z,10.85
2022-09-12T02:18:21.440Z,9.75
2022-09-12T02:19:29.606Z,10.38
2022-09-12T02:20:47.930Z,9.68
2022-09-12T02:21:56.024Z,11.27
2022-09-12T02:23:00.669Z,9.23
2022-09-12T02:24:05.409Z,10.07
2022-09-12T02:25:11.512Z,8.90
2022-09-12T02:26:25.833Z,8.07
2022-09-12T02:27:37.830Z,8.63
2022-09-12T02:28:43.149Z,9.00
2022-09-12T02:29:45.833Z,8.68
2022-09-12T02:31:01.253Z,10.40
2022-09-12T02:32:11.847Z,11.15
2022-09-12T02:33:14.019Z,11.20
2022-09-12T02:34:19.179Z,11.25
2022-09-12T02:35:33.880Z,11.35
2022-09-12T02:37:11.165Z,8.55
2022-09-12T02:38:24.012Z,8.05
2022-09-12T02:39:26.321Z,10.43
2022-09-12T02:40:30.355Z,11.73
2022-09-12T02:41:32.580Z,10.25
2022-09-12T02:42:36.728Z,10.48
2022-09-12T02:43:38.933Z,8.88
2022-09-12T02:44:41.746Z,10.68
2022-09-12T02:45:44.645Z,11.45
2022-09-12T02:46:58.644Z,11.00
2022-09-12T02:48:23.687Z,10.35
2022-09-12T02:49:26.085Z,11.98
2022-09-12T02:50:29.185Z,10.15
2022-09-12T02:51:31.519Z,10.73
2022-09-12T02:52:34.527Z,10.00
2022-09-12T02:53:37.993Z,11.57
2022-09-12T02:54:40.543Z,13.73
2022-09-12T02:55:43.216Z,12.05
2022-09-12T02:56:46.232Z,10.88
2022-09-12T02:57:48.386Z,9.88
2022-09-12T02:58:50.921Z,9.38
2022-09-12T02:59:57.067Z,11.95
2022-09-12T03:01:11.295Z,10.95
2022-09-12T03:02:16.467Z,14.75
2022-09-12T03:03:54.023Z,11.95
2022-09-12T03:05:01.646Z,9.32
2022-09-12T03:06:35.196Z,12.25
2022-09-12T03:08:02.198Z,10.23
2022-09-12T03:09:33.499Z,10.57
2022-09-12T03:12:08.703Z,10.25
2022-09-12T03:13:30.797Z,8.63
2022-09-12T03:14:43.751Z,11.65
2022-09-12T03:16:01.015Z,10.82
2022-09-12T03:17:24.834Z,10.80
2022-09-12T03:18:52.462Z,10.75
2022-09-12T03:20:09.978Z,10.68
2022-09-12T03:21:15.565Z,9.93
2022-09-12T03:22:28.718Z,10.95
2022-09-12T03:23:30.790Z,10.98
2022-09-12T03:24:38.114Z,11.95
2022-09-12T03:25:52.788Z,11.85
2022-09-12T03:27:01.407Z,9.43
2022-09-12T03:28:08.409Z,12.50
2022-09-12T03:29:13.175Z,9.13
2022-09-12T03:30:15.496Z,10.27
2022-09-12T03:31:19.632Z,8.93
2022-09-12T03:32:40.564Z,8.27
2022-09-12T03:33:43.088Z,9.75
2022-09-12T03:34:45.285Z,11.15
2022-09-12T03:35:48.342Z,9.45
2022-09-12T03:36:50.693Z,11.13
2022-09-12T03:37:53.113Z,9.18
2022-09-12T03:38:55.509Z,9.75
2022-09-12T03:39:57.640Z,9.98
2022-09-12T03:41:01.145Z,12.00
2022-09-12T03:42:03.347Z,11.30
2022-09-12T03:43:07.985Z,9.57
2022-09-12T03:44:10.121Z,13.05
2022-09-12T03:45:12.226Z,10.85
2022-09-12T03:46:14.762Z,13.07
2022-09-12T03:47:16.879Z,9.38
2022-09-12T03:48:19.040Z,10.35
2022-09-12T03:49:21.139Z,9.45
2022-09-12T03:50:23.297Z,8.55
2022-09-12T03:51:25.503Z,8.00
2022-09-12T03:52:27.668Z,10.02
2022-09-12T03:53:30.764Z,10.90
2022-09-12T03:54:32.854Z,9.50
2022-09-12T03:55:35.091Z,13.15
2022-09-12T03:56:37.760Z,10.73
2022-09-12T03:57:40.418Z,10.05
2022-09-12T03:58:42.682Z,10.25
2022-09-12T03:59:44.983Z,11.95
2022-09-12T04:00:47.143Z,9.68
2022-09-12T04:01:49.307Z,9.52
2022-09-12T04:02:56.923Z,11.07
2022-09-12T04:03:59.051Z,9.73
2022-09-12T04:05:01.414Z,11.45
2022-09-12T04:06:03.718Z,10.98
2022-09-12T04:07:05.815Z,11.40
2022-09-12T04:08:07.953Z,11.48
2022-09-12T04:09:10.099Z,9.70
2022-09-12T04:10:12.224Z,8.23
2022-09-12T04:11:15.397Z,10.90
2022-09-12T04:12:17.545Z,11.95
2022-09-12T04:13:19.682Z,9.07
2022-09-12T04:14:21.834Z,9.02
2022-09-12T04:15:24.120Z,10.75
2022-09-12T04:16:26.287Z,10.48
2022-09-12T04:17:28.385Z,10.00
2022-09-12T04:18:31.086Z,9.98
2022-09-12T04:19:33.443Z,9.13
2022-09-12T04:20:36.464Z,11.15
2022-09-12T04:21:39.481Z,9.93
2022-09-12T04:22:41.628Z,9.73
2022-09-12T04:23:44.162Z,11.15
2022-09-12T04:24:46.381Z,10.18
2022-09-12T04:26:00.782Z,10.25
2022-09-12T04:27:07.622Z,10.80
2022-09-12T04:28:10.013Z,11.35
2022-09-12T04:29:12.675Z,11.85
2022-09-12T04:30:14.869Z,9.43
2022-09-12T04:31:18.421Z,14.77
2022-09-12T04:32:22.156Z,11.38
2022-09-12T04:33:24.354Z,12.35
2022-09-12T04:34:26.598Z,11.07
2022-09-12T04:35:28.693Z,11.38
2022-09-12T04:36:31.075Z,10.23
2022-09-12T04:37:33.210Z,13.95
2022-09-12T04:38:36.310Z,16.52
2022-09-12T04:39:38.755Z,11.98
2022-09-12T04:40:40.930Z,12.82
2022-09-12T04:41:43.149Z,13.48
2022-09-12T04:42:45.322Z,11.40
2022-09-12T04:43:51.721Z,10.00
2022-09-12T04:44:54.476Z,11.45
2022-09-12T04:45:56.647Z,10.13
2022-09-12T04:46:58.755Z,12.18
2022-09-12T04:48:01.019Z,10.52
2022-09-12T04:49:03.790Z,10.38
2022-09-12T04:50:06.505Z,13.18
2022-09-12T04:51:23.075Z,12.48
2022-09-12T04:52:25.270Z,10.02
2022-09-12T04:53:27.377Z,11.43
2022-09-12T04:54:29.481Z,12.13
2022-09-12T04:55:34.276Z,11.60
2022-09-12T04:56:41.272Z,11.43
2022-09-12T04:57:43.675Z,11.27
2022-09-12T04:58:46.878Z,11.25
2022-09-12T04:59:49.115Z,11.95
2022-09-12T05:00:51.245Z,11.52
2022-09-12T05:01:53.449Z,11.40
2022-09-12T05:02:55.600Z,10.48
2022-09-12T05:03:59.797Z,12.40
2022-09-12T05:05:01.913Z,9.55
2022-09-12T05:06:05.882Z,12.07
2022-09-12T05:07:08.058Z,12.20
2022-09-12T05:08:10.161Z,11.27
2022-09-12T05:09:14.056Z,11.68
2022-09-12T05:10:16.451Z,10.30
2022-09-12T05:11:28.232Z,12.75
2022-09-12T05:12:36.090Z,9.55
2022-09-12T05:13:39.135Z,10.10
2022-09-12T05:14:41.313Z,13.55
2022-09-12T05:15:43.438Z,13.30
2022-09-12T05:16:49.219Z,13.52
2022-09-12T05:17:51.817Z,13.15
2022-09-12T05:18:54.301Z,14.05
2022-09-12T05:19:56.435Z,10.05
2022-09-12T05:21:08.100Z,10.40
2022-09-12T05:22:10.287Z,9.63
2022-09-12T05:23:12.475Z,11.65
2022-09-12T05:24:14.651Z,11.55
2022-09-12T05:25:17.094Z,11.60
2022-09-12T05:26:20.594Z,12.50
2022-09-12T05:27:22.769Z,10.93
2022-09-12T05:28:28.703Z,10.65
2022-09-12T05:29:31.598Z,10.82
2022-09-12T05:30:33.743Z,12.15
2022-09-12T05:31:35.978Z,13.00
2022-09-12T05:32:38.082Z,12.93
2022-09-12T05:33:42.279Z,10.77
2022-09-12T05:34:44.413Z,10.73
2022-09-12T05:35:52.530Z,9.98
2022-09-12T05:36:54.637Z,10.38
2022-09-12T05:37:56.767Z,11.63
2022-09-12T05:39:02.079Z,12.18
2022-09-12T05:40:07.607Z,9.88
2022-09-12T05:41:25.141Z,13.45
2022-09-12T05:42:29.850Z,10.38
2022-09-12T05:43:35.901Z,9.75
2022-09-12T05:44:37.990Z,10.77
2022-09-12T05:45:41.502Z,14.07
2022-09-12T05:46:45.532Z,12.98
2022-09-12T05:47:47.773Z,10.93
2022-09-12T05:48:55.714Z,11.10
2022-09-12T05:49:59.742Z,11.20
2022-09-12T05:51:10.127Z,12.90
2022-09-12T05:52:12.612Z,15.40
2022-09-12T05:53:14.741Z,12.02
2022-09-12T05:54:20.380Z,15.35
2022-09-12T05:55:23.595Z,13.90
2022-09-12T05:56:28.297Z,12.60
2022-09-12T05:57:30.485Z,13.85
2022-09-12T05:58:33.810Z,13.30
2022-09-12T05:59:35.951Z,12.32
2022-09-12T06:00:38.084Z,14.10
2022-09-12T06:01:40.731Z,15.43
2022-09-12T06:02:43.001Z,10.65
2022-09-12T06:03:49.287Z,15.52
2022-09-12T06:04:51.452Z,14.70
2022-09-12T06:05:53.574Z,13.20
2022-09-12T06:06:55.733Z,16.90
2022-09-12T06:07:57.826Z,16.70
2022-09-12T06:09:02.144Z,13.48
2022-09-12T06:10:05.325Z,14.40
2022-09-12T06:11:08.393Z,15.70
2022-09-12T06:12:10.567Z,12.77
2022-09-12T06:13:12.899Z,15.40
2022-09-12T06:14:16.546Z,17.35
2022-09-12T06:15:18.677Z,15.70
2022-09-12T06:16:26.130Z,15.15
2022-09-12T06:17:28.297Z,14.45
2022-09-12T06:18:30.419Z,17.90
2022-09-12T06:19:32.583Z,14.88
2022-09-12T06:20:36.881Z,16.35
2022-09-12T06:21:39.965Z,17.65
2022-09-12T06:22:42.434Z,17.45
2022-09-12T06:23:46.204Z,17.20
2022-09-12T06:24:48.397Z,18.50
2022-09-12T06:25:50.626Z,15.15
2022-09-12T06:26:52.913Z,22.45
2022-09-12T06:27:55.200Z,16.35
2022-09-12T06:28:59.783Z,15.32
2022-09-12T06:30:01.992Z,19.48
2022-09-12T06:31:29.305Z,17.00
2022-09-12T06:32:31.729Z,22.30
2022-09-12T06:33:38.428Z,18.13
2022-09-12T06:34:40.545Z,17.88
2022-09-12T06:35:42.924Z,15.30
2022-09-12T06:36:48.181Z,20.92
2022-09-12T06:37:50.295Z,19.60
2022-09-12T06:39:01.041Z,16.50
2022-09-12T06:40:03.479Z,19.50
2022-09-12T06:41:07.584Z,18.27
2022-09-12T06:42:10.038Z,20.40
2022-09-12T06:43:13.769Z,20.92
2022-09-12T06:44:18.257Z,20.05
2022-09-12T06:45:20.943Z,18.65
2022-09-12T06:46:23.300Z,22.85
2022-09-12T06:47:25.421Z,20.17
2022-09-12T06:48:28.046Z,18.25
2022-09-12T06:49:31.811Z,19.85
2022-09-12T06:50:34.068Z,17.00
2022-09-12T06:51:36.341Z,17.70
2022-09-12T06:52:38.475Z,17.70
2022-09-12T06:53:41.535Z,15.73
2022-09-12T06:54:43.683Z,18.48
2022-09-12T06:55:45.807Z,19.58
2022-09-12T06:56:48.013Z,19.60
2022-09-12T06:57:50.266Z,17.60
2022-09-12T06:58:53.687Z,20.92
2022-09-12T06:59:56.187Z,21.25
2022-09-12T07:01:17.503Z,16.10
2022-09-12T07:02:20.122Z,17.63
2022-09-12T07:03:22.491Z,20.30
2022-09-12T07:04:24.589Z,16.95
2022-09-12T07:05:26.732Z,14.82
2022-09-12T07:06:33.924Z,16.65
2022-09-12T07:07:36.123Z,17.27
2022-09-12T07:08:39.301Z,19.15
2022-09-12T07:09:41.414Z,17.05
2022-09-12T07:10:43.541Z,19.25
2022-09-12T07:11:46.429Z,20.73
2022-09-12T07:12:48.524Z,18.42
2022-09-12T07:13:53.342Z,20.25
2022-09-12T07:14:55.649Z,17.98
2022-09-12T07:16:01.766Z,20.00
2022-09-12T07:17:03.971Z,20.35
2022-09-12T07:18:06.657Z,15.88
2022-09-12T07:19:09.712Z,17.83
2022-09-12T07:20:11.871Z,19.08
2022-09-12T07:21:15.482Z,16.10
2022-09-12T07:22:17.613Z,17.75
2022-09-12T07:23:19.716Z,18.92
2022-09-12T07:24:21.884Z,15.50
2022-09-12T07:25:24.076Z,17.63
2022-09-12T07:26:30.073Z,13.95
2022-09-12T07:27:32.165Z,20.40
2022-09-12T07:28:34.756Z,17.20
2022-09-12T07:29:37.943Z,15.20
2022-09-12T07:30:40.329Z,13.98
2022-09-12T07:31:43.195Z,18.25
2022-09-12T07:32:45.383Z,19.75
2022-09-12T07:33:50.107Z,19.95
2022-09-12T07:34:55.936Z,18.92
2022-09-12T07:36:06.507Z,21.02
2022-09-12T07:37:08.659Z,21.75
2022-09-12T07:38:10.776Z,19.50
2022-09-12T07:39:12.910Z,21.80
2022-09-12T07:40:15.211Z,18.67
2022-09-12T07:41:20.894Z,20.25
2022-09-12T07:42:23.294Z,21.50
2022-09-12T07:43:25.638Z,19.50
2022-09-12T07:44:27.747Z,19.05
2022-09-12T07:45:30.115Z,17.23
2022-09-12T07:46:33.695Z,18.58
2022-09-12T07:47:35.783Z,19.67
2022-09-12T07:48:39.119Z,20.95
2022-09-12T07:49:41.249Z,18.23
2022-09-12T07:50:45.201Z,22.80
2022-09-12T07:51:47.402Z,22.83
2022-09-12T07:52:50.462Z,20.55
2022-09-12T07:53:53.018Z,20.17
2022-09-12T07:54:55.135Z,19.25
2022-09-12T07:55:57.348Z,20.77
2022-09-12T07:56:59.555Z,24.20
2022-09-12T07:58:01.641Z,18.63
2022-09-12T07:59:03.975Z,21.95
2022-09-12T08:00:09.272Z,19.75
2022-09-12T08:01:17.625Z,23.55
2022-09-12T08:02:20.259Z,20.55
2022-09-12T08:03:22.703Z,21.45
2022-09-12T08:04:25.066Z,19.80
2022-09-12T08:05:27.249Z,20.35
2022-09-12T08:06:31.402Z,21.27
2022-09-12T08:07:34.135Z,26.73
2022-09-12T08:08:37.136Z,24.10
2022-09-12T08:09:39.298Z,22.98
2022-09-12T08:10:41.709Z,22.45
2022-09-12T08:11:44.147Z,21.88
2022-09-12T08:12:46.283Z,23.70
2022-09-12T08:13:54.344Z,23.65
2022-09-12T08:14:57.402Z,27.88
2022-09-12T08:16:01.355Z,24.25
2022-09-12T08:17:03.531Z,20.58
2022-09-12T08:18:05.714Z,22.67
2022-09-12T08:19:07.822Z,22.52
2022-09-12T08:20:09.977Z,23.10
2022-09-12T08:21:14.879Z,20.70
2022-09-12T08:22:20.045Z,22.77
2022-09-12T08:23:23.463Z,22.42
2022-09-12T08:24:25.629Z,22.05
2022-09-12T08:25:28.655Z,22.13
2022-09-12T08:26:32.699Z,21.98
2022-09-12T08:27:34.811Z,23.58
2022-09-12T08:28:37.927Z,22.90
2022-09-12T08:29:40.318Z,24.60
2022-09-12T08:30:42.484Z,22.92
2022-09-12T08:31:44.615Z,21.20
2022-09-12T08:32:47.236Z,25.83
2022-09-12T08:33:49.477Z,22.75
2022-09-12T08:34:51.724Z,26.73
2022-09-12T08:35:53.909Z,23.15
2022-09-12T08:36:56.056Z,27.67
2022-09-12T08:37:58.190Z,23.60
2022-09-12T08:39:03.753Z,23.40
2022-09-12T08:40:06.970Z,23.48
2022-09-12T08:41:31.356Z,24.15
2022-09-12T08:42:52.805Z,23.30
2022-09-12T08:44:26.270Z,21.23
2022-09-12T08:45:39.194Z,21.88
2022-09-12T08:46:57.169Z,22.38
2022-09-12T08:48:03.122Z,23.08
2022-09-12T08:49:10.701Z,21.80
2022-09-12T08:50:19.328Z,19.58
2022-09-12T08:51:21.999Z,23.67
2022-09-12T08:52:30.780Z,23.02
2022-09-12T08:53:35.978Z,23.60
2022-09-12T08:54:39.322Z,24.35
2022-09-12T08:55:45.786Z,20.88
2022-09-12T08:56:48.301Z,24.40
2022-09-12T08:57:51.941Z,25.48
2022-09-12T08:58:54.048Z,24.63
2022-09-12T08:59:56.533Z,23.10
2022-09-12T09:01:20.523Z,27.45
2022-09-12T09:02:48.238Z,24.60
2022-09-12T09:04:18.077Z,24.15
2022-09-12T09:05:29.394Z,20.83
2022-09-12T09:06:56.682Z,25.80
2022-09-12T09:08:23.610Z,23.08
2022-09-12T09:09:46.833Z,23.15
2022-09-12T09:10:59.448Z,22.45
2022-09-12T09:12:07.954Z,25.27
2022-09-12T09:13:39.006Z,21.85
2022-09-12T09:16:35.466Z,23.58
2022-09-12T09:18:50.510Z,24.92
2022-09-12T09:20:22.625Z,20.13
2022-09-12T09:21:31.753Z,21.90
2022-09-12T09:22:44.921Z,23.92
2022-09-12T09:23:54.136Z,22.85
2022-09-12T09:25:02.673Z,23.08
2022-09-12T09:26:08.858Z,22.75
2022-09-12T09:27:42.025Z,21.05
2022-09-12T09:28:49.909Z,22.45
2022-09-12T09:29:55.331Z,20.58
2022-09-12T09:30:58.073Z,25.73
2022-09-12T09:32:03.597Z,23.65
2022-09-12T09:33:15.546Z,22.10
2022-09-12T09:34:23.228Z,24.77
2022-09-12T09:35:28.373Z,23.70
2022-09-12T09:36:58.526Z,25.35
2022-09-12T09:38:35.176Z,27.55
2022-09-12T09:39:43.355Z,25.05
2022-09-12T09:41:16.215Z,21.23
2022-09-12T09:42:32.778Z,22.25
2022-09-12T09:43:37.960Z,20.13
2022-09-12T09:44:40.358Z,22.70
2022-09-12T09:45:45.788Z,20.02
2022-09-12T09:46:55.208Z,19.60
2022-09-12T09:48:13.315Z,19.80
2022-09-12T09:49:22.669Z,20.38
2022-09-12T09:50:25.260Z,20.38
2022-09-12T09:51:33.486Z,17.13
2022-09-12T09:52:36.152Z,18.70
2022-09-12T09:53:46.164Z,24.33
2022-09-12T09:54:59.618Z,20.48
2022-09-12T09:56:09.714Z,22.60
2022-09-12T09:57:42.438Z,19.40
2022-09-12T09:58:44.590Z,18.70
2022-09-12T09:59:46.746Z,19.70
2022-09-12T10:00:49.843Z,18.83
2022-09-12T10:02:24.250Z,17.98
2022-09-12T10:03:55.996Z,15.00
2022-09-12T10:04:59.749Z,17.20
2022-09-12T10:06:07.996Z,20.42
2022-09-12T10:07:19.458Z,19.05
2022-09-12T10:08:28.916Z,18.95
2022-09-12T10:09:34.317Z,16.70
2022-09-12T10:10:36.507Z,15.95
2022-09-12T10:11:42.567Z,17.45
2022-09-12T10:12:47.871Z,16.58
2022-09-12T10:13:57.875Z,12.55
2022-09-12T10:15:02.250Z,17.33
2022-09-12T10:16:28.937Z,13.57
2022-09-12T10:17:43.790Z,14.25
2022-09-12T10:18:46.255Z,13.20
2022-09-12T10:19:59.874Z,11.43
2022-09-12T10:21:33.529Z,14.15
2022-09-12T10:22:35.764Z,16.27
2022-09-12T10:23:41.018Z,12.80
2022-09-12T10:24:49.610Z,11.77
2022-09-12T10:26:00.126Z,12.93
2022-09-12T10:27:14.196Z,12.88
2022-09-12T10:28:35.667Z,12.63
2022-09-12T10:29:48.627Z,11.63
2022-09-12T10:30:53.182Z,10.77
2022-09-12T10:31:59.386Z,9.98
2022-09-12T10:33:11.565Z,12.02
2022-09-12T10:34:25.321Z,9.77
2022-09-12T10:35:42.396Z,9.02
2022-09-12T10:36:44.721Z,9.55
2022-09-12T10:37:57.001Z,9.98
2022-09-12T10:39:02.620Z,9.48
2022-09-12T10:40:09.248Z,10.13
2022-09-12T10:41:11.933Z,9.32
2022-09-12T10:42:18.301Z,7.75
2022-09-12T10:43:34.352Z,9.00
2022-09-12T10:44:36.600Z,9.63
2022-09-12T10:45:38.890Z,7.57
2022-09-12T10:46:41.070Z,11.48
2022-09-12T10:47:43.226Z,8.15
2022-09-12T10:49:11.986Z,8.10
2022-09-12T10:50:36.292Z,8.48
2022-09-12T10:51:38.378Z,7.38
2022-09-12T10:52:40.479Z,7.38
2022-09-12T10:53:46.337Z,7.63
2022-09-12T10:54:48.969Z,7.78
2022-09-12T10:55:53.879Z,9.20
2022-09-12T10:57:08.258Z,9.93
2022-09-12T10:58:35.213Z,9.13
2022-09-12T11:00:14.745Z,8.52
2022-09-12T11:01:34.152Z,7.75
2022-09-12T11:03:16.155Z,8.13
2022-09-12T11:04:55.380Z,12.65
2022-09-12T11:06:01.836Z,8.40
2022-09-12T11:07:22.770Z,9.55
2022-09-12T11:08:36.489Z,7.53
2022-09-12T11:10:02.879Z,10.00
2022-09-12T11:11:17.073Z,8.60
2022-09-12T11:12:28.249Z,9.30
2022-09-12T11:13:48.718Z,8.80
2022-09-12T11:15:00.580Z,8.30
2022-09-12T11:16:24.230Z,7.30
2022-09-12T11:17:54.032Z,9.52
2022-09-12T11:19:24.989Z,6.72
2022-09-12T11:22:31.091Z,7.22
2022-09-12T11:24:11.266Z,7.78
2022-09-12T11:25:40.617Z,8.32
2022-09-12T11:27:05.502Z,8.95
2022-09-12T11:28:24.805Z,8.30
2022-09-12T11:29:46.802Z,8.10
2022-09-12T11:31:00.086Z,10.40
2022-09-12T11:32:47.831Z,6.80
2022-09-12T11:33:56.648Z,10.38
2022-09-12T11:35:04.966Z,7.75
2022-09-12T11:36:12.867Z,11.02
2022-09-12T11:37:52.875Z,8.40
2022-09-12T11:39:10.386Z,9.43
2022-09-12T11:40:21.464Z,9.93
2022-09-12T11:41:31.342Z,7.72
2022-09-12T11:42:40.077Z,9.50
2022-09-12T11:43:46.598Z,11.80
2022-09-12T11:45:06.146Z,9.20
2022-09-12T11:46:28.011Z,9.02
2022-09-12T11:47:34.622Z,7.45
2022-09-12T11:48:43.934Z,7.07
2022-09-12T11:49:49.995Z,10.68
2022-09-12T11:50:52.899Z,8.10
2022-09-12T11:52:14.756Z,8.98
2022-09-12T11:53:28.508Z,8.80
2022-09-12T11:54:35.608Z,9.82
2022-09-12T11:55:50.482Z,10.40
2022-09-12T11:57:20.789Z,7.05
2022-09-12T11:58:26.632Z,12.23
2022-09-12T11:59:40.395Z,9.18
2022-09-12T12:00:53.262Z,8.85
2022-09-12T12:01:59.824Z,8.70
2022-09-12T12:03:13.725Z,11.20
2022-09-12T12:04:20.870Z,10.52
2022-09-12T12:05:36.049Z,11.30
2022-09-12T12:07:16.138Z,11.68
2022-09-12T12:08:20.690Z,12.88
2022-09-12T12:09:23.473Z,11.85
2022-09-12T12:10:43.381Z,10.05
2022-09-12T12:11:52.551Z,13.27
2022-09-12T12:12:56.987Z,10.27
2022-09-12T12:14:02.550Z,13.57
2022-09-12T12:15:05.100Z,9.77
2022-09-12T12:16:11.960Z,11.65
2022-09-12T12:17:19.838Z,9.00
2022-09-12T12:18:25.534Z,10.98
2022-09-12T12:19:34.228Z,10.02
2022-09-12T12:20:36.604Z,10.45
2022-09-12T12:21:42.344Z,13.13
2022-09-12T12:22:55.242Z,12.95
2022-09-12T12:24:09.582Z,12.05
2022-09-12T12:25:11.628Z,12.45
2022-09-12T12:26:39.492Z,10.30
2022-09-12T12:27:44.621Z,9.38
2022-09-12T12:28:50.630Z,12.80
2022-09-12T12:29:52.754Z,12.05
2022-09-12T12:30:54.887Z,10.05
2022-09-12T12:32:02.344Z,11.00
2022-09-12T12:33:27.239Z,10.80
2022-09-12T12:34:30.831Z,10.20
2022-09-12T12:35:36.532Z,14.48
2022-09-12T12:36:40.626Z,11.55
2022-09-12T12:37:42.704Z,13.82
2022-09-12T12:38:44.843Z,12.32
2022-09-12T12:39:48.129Z,13.35
2022-09-12T12:40:50.471Z,17.58
2022-09-12T12:41:52.641Z,13.35
2022-09-12T12:43:25.855Z,14.50
2022-09-12T12:44:49.259Z,14.25
2022-09-12T12:46:01.688Z,12.18
2022-09-12T12:47:25.556Z,12.75
2022-09-12T12:48:31.897Z,12.05
2022-09-12T12:49:34.099Z,11.43
2022-09-12T12:50:36.545Z,10.77
2022-09-12T12:51:48.195Z,16.65
2022-09-12T12:53:17.180Z,11.38
2022-09-12T12:54:40.276Z,12.45
2022-09-12T12:55:42.385Z,13.70
2022-09-12T12:56:44.635Z,12.23
2022-09-12T12:57:50.063Z,13.43
2022-09-12T12:59:00.162Z,10.52
2022-09-12T13:00:09.677Z,10.60
2022-09-12T13:01:18.975Z,16.17
2022-09-12T13:02:27.240Z,12.35
2022-09-12T13:03:32.707Z,12.65
2022-09-12T13:04:34.994Z,15.00
2022-09-12T13:05:49.889Z,10.40
2022-09-12T13:07:08.800Z,11.23
2022-09-12T13:08:31.105Z,9.38
2022-09-12T13:09:43.352Z,11.35
2022-09-12T13:11:00.350Z,9.02
2022-09-12T13:12:05.150Z,9.57
2022-09-12T13:13:08.680Z,9.00
2022-09-12T13:14:48.152Z,10.35
2022-09-12T13:15:52.020Z,8.40
2022-09-12T13:16:59.235Z,10.43
2022-09-12T13:18:04.489Z,10.35
2022-09-12T13:19:17.967Z,7.60
2022-09-12T13:20:35.748Z,10.07
2022-09-12T13:21:38.420Z,8.73
2022-09-12T13:22:46.540Z,8.65
2022-09-12T13:24:03.662Z,10.80
2022-09-12T13:25:38.801Z,11.50
2022-09-12T13:26:44.198Z,7.85
2022-09-12T13:28:16.086Z,8.52
2022-09-12T13:29:19.308Z,11.70
2022-09-12T13:30:21.682Z,11.10
2022-09-12T13:31:28.489Z,13.27
2022-09-12T13:32:30.756Z,10.98
2022-09-12T13:33:39.971Z,11.77
2022-09-12T13:35:04.794Z,10.65
2022-09-12T13:36:34.973Z,10.60
2022-09-12T13:37:39.943Z,9.02
2022-09-12T13:39:00.619Z,9.20
2022-09-12T13:40:35.463Z,11.70
2022-09-12T13:42:10.101Z,11.07
2022-09-12T13:43:17.690Z,10.60
2022-09-12T13:44:21.837Z,9.95
2022-09-12T13:45:28.741Z,8.32
2022-09-12T13:46:34.110Z,13.60
2022-09-12T13:47:40.840Z,10.65
2022-09-12T13:48:44.178Z,9.45
2022-09-12T13:49:47.066Z,17.63
2022-09-12T13:50:56.285Z,8.57
2022-09-12T13:52:01.254Z,8.75
2022-09-12T13:53:12.276Z,11.75
2022-09-12T13:54:21.419Z,10.05
2022-09-12T13:55:33.039Z,10.98
2022-09-12T13:56:47.310Z,8.45
2022-09-12T13:57:58.067Z,10.00
2022-09-12T13:59:02.460Z,9.63
2022-09-12T14:00:20.231Z,11.82
2022-09-12T14:01:24.052Z,9.43
2022-09-12T14:02:28.846Z,9.80
2022-09-12T14:03:54.762Z,10.93
2022-09-12T14:05:10.422Z,13.30
2022-09-12T14:06:12.920Z,11.52
2022-09-12T14:07:20.207Z,8.63
2022-09-12T14:08:23.771Z,10.90
2022-09-12T14:09:34.535Z,6.50
2022-09-12T14:10:39.753Z,6.93
2022-09-12T14:11:42.137Z,11.85
2022-09-12T14:12:50.686Z,11.23
2022-09-12T14:13:53.445Z,7.65
2022-09-12T14:14:56.175Z,8.18
2022-09-12T14:15:59.810Z,8.77
2022-09-12T14:17:18.180Z,8.65
2022-09-12T14:18:26.518Z,8.87
2022-09-12T14:19:29.247Z,6.97
2022-09-12T14:20:36.160Z,8.77
2022-09-12T14:21:38.608Z,9.27
2022-09-12T14:22:41.469Z,7.13
2022-09-12T14:23:47.842Z,6.72
2022-09-12T14:24:51.673Z,8.77
2022-09-12T14:25:56.294Z,8.45
2022-09-12T14:26:58.795Z,8.20
2022-09-12T14:28:01.075Z,7.22
2022-09-12T14:29:06.382Z,9.45
2022-09-12T14:30:19.135Z,9.85
2022-09-12T14:31:30.119Z,9.93
2022-09-12T14:32:32.382Z,9.80
2022-09-12T14:33:53.784Z,11.43
2022-09-12T14:35:25.206Z,7.90
2022-09-12T14:36:45.814Z,5.63
2022-09-12T14:37:50.313Z,6.47
2022-09-12T14:38:57.166Z,7.65
2022-09-12T14:39:59.680Z,6.50
2022-09-12T14:41:08.000Z,6.03
2022-09-12T14:42:16.578Z,10.52
2022-09-12T14:43:27.753Z,7.95
2022-09-12T14:44:31.059Z,6.72
2022-09-12T14:45:33.302Z,6.40
2022-09-12T14:46:38.766Z,8.55
2022-09-12T14:47:44.382Z,7.30
2022-09-12T14:48:51.704Z,8.30
2022-09-12T14:49:54.619Z,10.77
2022-09-12T14:50:56.921Z,9.02
2022-09-12T14:52:01.646Z,7.90
2022-09-12T14:53:23.165Z,9.15
2022-09-12T14:54:37.687Z,7.97